Change the Weather History Date:

Wednesday, January 26, 2000

  Actual Average Record
Temperature  
Mean Temperature 8 °F -  
Max Temperature 14 °F 32 °F 55 °F (2012)
Min Temperature 3 °F 18 °F 3 °F (2000)
Degree Days  
Heating Degree Days 56    
Moisture  
Dew Point 3 °F    
Average Humidity 83    
Maximum Humidity 100    
Minimum Humidity 67    
Precipitation  
Precipitation 0.00 in - - ()
Sea Level Pressure  
Sea Level Pressure 29.71 in    
Wind  
Wind Speed 22 mph (NW)    
Max Wind Speed 28 mph    
Max Gust Speed 36 mph    
Visibility 10 miles    
Events      
Averages and records for this station are not official NWS values.
T = Trace of Precipitation, MM = Missing Value Source: NWS Daily Summary

Daily Weather History Graph

Daily Weather History Graph

Search for Another Location

Airport or City:

Trip Planner

Search our weather history database for the weather conditions in past years. The results will help you decide how hot, cold, wet, or windy it might be!

Date:

Astronomy

Jan. 26, 2000 Rise Set
Actual Time 7:28 AM EST 5:35 PM EST
Civil Twilight 7:00 AM EST 6:03 PM EST
Nautical Twilight 6:28 AM EST 6:35 PM EST
Astronomical Twilight 5:57 AM EST 7:06 PM EST
Moon 11:45 PM EST (1/26) 11:00 AM EST (1/26)
Length of Visible Light 11h 02m
Length of Day
10h 06m
Waning Gibbous, 66% of the Moon is Illuminated
Jan 26
Waning Gibbous
Jan 28
Last Quarter
Feb 5
New
Feb 12
First Quarter
Feb 19
Full

Hourly Weather History & Observations

Time (EST) Temp. Windchill Dew Point Humidity Pressure Visibility Wind Dir Wind Speed Gust Speed Precip Events Conditions
12:00 AM 3.2 °F -20.3 °F 1.4 °F 92% 29.50 in 10.0 mi WNW 26.5 mph 32.2 mph N/A   Mostly Cloudy
12:24 AM 3.2 °F -19.0 °F 1.4 °F 92% 29.51 in 10.0 mi WNW 23.0 mph 31.1 mph N/A   Overcast
12:43 AM 3.2 °F -20.7 °F 1.4 °F 92% 29.52 in 10.0 mi WNW 27.6 mph 32.2 mph N/A   Overcast
1:00 AM 3.2 °F -19.5 °F 1.4 °F 92% 29.52 in 10.0 mi WNW 24.2 mph 29.9 mph N/A   Overcast
1:19 AM 3.2 °F -20.7 °F 1.4 °F 92% 29.53 in 10.0 mi WNW 27.6 mph 33.4 mph N/A   Scattered Clouds
1:43 AM 3.2 °F -19.9 °F 1.4 °F 92% 29.53 in 10.0 mi WNW 25.3 mph 31.1 mph N/A   Scattered Clouds
1:59 AM 3.2 °F -19.9 °F 1.4 °F 92% 29.53 in 10.0 mi WNW 25.3 mph 31.1 mph N/A   Mostly Cloudy
2:19 AM 3.2 °F -19.9 °F 1.4 °F 92% 29.53 in 10.0 mi WNW 25.3 mph 31.1 mph N/A   Overcast
7:59 AM 3.2 °F -17.6 °F 1.4 °F 92% 29.64 in 10.0 mi WNW 19.6 mph - N/A   Overcast
8:20 AM 3.2 °F -18.1 °F 1.4 °F 92% 29.66 in 10.0 mi WNW 20.7 mph 26.5 mph N/A   Overcast
8:41 AM 3.2 °F -17.6 °F 3.2 °F 100% 29.66 in 10.0 mi WNW 19.6 mph 25.3 mph N/A   Mostly Cloudy
9:03 AM 3.2 °F -17.6 °F 1.4 °F 92% 29.68 in 10.0 mi WNW 19.6 mph 26.5 mph N/A   Scattered Clouds
9:20 AM 5.0 °F -14.7 °F 3.2 °F 92% 29.68 in 10.0 mi WNW 18.4 mph - N/A   Scattered Clouds
9:39 AM 5.0 °F -14.7 °F 3.2 °F 92% 29.69 in 10.0 mi WNW 18.4 mph 23.0 mph N/A   Mostly Cloudy
10:01 AM 6.8 °F -12.4 °F 5.0 °F 92% 29.70 in 10.0 mi WNW 18.4 mph 26.5 mph N/A   Overcast
10:21 AM 8.6 °F -10.0 °F 6.8 °F 92% 29.70 in 10.0 mi NW 18.4 mph 26.5 mph N/A   Overcast
10:41 AM 8.6 °F -10.5 °F 3.2 °F 79% 29.71 in 10.0 mi WNW 19.6 mph 28.8 mph N/A   Overcast
11:00 AM 8.6 °F -10.5 °F 3.2 °F 79% 29.71 in 10.0 mi NW 19.6 mph 28.8 mph N/A   Overcast
11:21 AM 10.4 °F -7.7 °F 5.0 °F 79% 29.71 in 10.0 mi NW 18.4 mph 28.8 mph N/A   Overcast
11:39 AM 10.4 °F -7.7 °F 5.0 °F 79% 29.71 in 10.0 mi NW 18.4 mph 27.6 mph N/A   Overcast
11:59 AM 10.4 °F -8.6 °F 5.0 °F 79% 29.70 in 10.0 mi WNW 20.7 mph 29.9 mph N/A   Overcast
12:20 PM 12.2 °F -5.8 °F 5.0 °F 73% 29.70 in 10.0 mi NW 19.6 mph 31.1 mph N/A   Overcast
12:40 PM 12.2 °F -5.3 °F 5.0 °F 73% 29.70 in 10.0 mi NW 18.4 mph 25.3 mph N/A   Overcast
1:01 PM 12.2 °F -8.6 °F 6.8 °F 79% 29.69 in 10.0 mi NW 27.6 mph 34.5 mph N/A   Overcast
1:22 PM 12.2 °F -6.7 °F 6.8 °F 79% 29.69 in 10.0 mi NW 21.9 mph 31.1 mph N/A   Overcast
1:41 PM 14.0 °F -3.4 °F 5.0 °F 67% 29.69 in 10.0 mi NNW 19.6 mph 29.9 mph N/A   Scattered Clouds
2:02 PM 14.0 °F -5.1 °F 6.8 °F 73% 29.70 in 10.0 mi NW 24.2 mph 32.2 mph N/A   Clear
2:19 PM 14.0 °F -5.8 °F 6.8 °F 73% 29.70 in 10.0 mi NW 26.5 mph 33.4 mph N/A   Clear
2:40 PM 14.0 °F -4.7 °F 5.0 °F 67% 29.71 in 10.0 mi NW 23.0 mph 32.2 mph N/A   Scattered Clouds
3:00 PM 14.0 °F -3.0 °F 5.0 °F 67% 29.71 in 10.0 mi NW 18.4 mph 31.1 mph N/A   Overcast
3:20 PM 12.2 °F -6.3 °F 3.2 °F 67% 29.71 in 10.0 mi NW 20.7 mph 29.9 mph N/A   Overcast
3:40 PM 12.2 °F -6.7 °F 3.2 °F 67% 29.71 in 10.0 mi NW 21.9 mph 34.5 mph N/A   Overcast
4:00 PM 12.2 °F -4.8 °F 3.2 °F 67% 29.71 in 10.0 mi NW 17.3 mph 28.8 mph N/A   Scattered Clouds
4:20 PM 10.4 °F -7.7 °F 3.2 °F 73% 29.73 in 10.0 mi NW 18.4 mph 31.1 mph N/A   Clear
4:40 PM 10.4 °F -6.0 °F 3.2 °F 73% 29.74 in 10.0 mi NW 15.0 mph 26.5 mph N/A   Scattered Clouds
5:00 PM 10.4 °F -7.2 °F 3.2 °F 73% 29.74 in 10.0 mi NW 17.3 mph 23.0 mph N/A   Scattered Clouds
5:20 PM 10.4 °F -9.1 °F 5.0 °F 79% 29.75 in 10.0 mi NW 21.9 mph 28.8 mph N/A   Mostly Cloudy
5:42 PM 8.6 °F -8.3 °F 3.2 °F 79% 29.76 in 10.0 mi NW 15.0 mph 24.2 mph N/A   Overcast
6:01 PM 8.6 °F -7.7 °F 3.2 °F 79% 29.77 in 10.0 mi WNW 13.8 mph 20.7 mph N/A   Overcast
6:21 PM 8.6 °F -9.5 °F 3.2 °F 79% 29.77 in 10.0 mi NW 17.3 mph 27.6 mph N/A   Overcast
6:40 PM 8.6 °F -9.5 °F 3.2 °F 79% 29.78 in 10.0 mi NW 17.3 mph 25.3 mph N/A   Overcast
7:00 PM 6.8 °F -11.8 °F 3.2 °F 85% 29.79 in 10.0 mi NW 17.3 mph 31.1 mph N/A   Overcast
7:21 PM 6.8 °F -11.3 °F 3.2 °F 85% 29.80 in 10.0 mi NW 16.1 mph 26.5 mph N/A   Overcast
7:41 PM 6.8 °F -12.4 °F 3.2 °F 85% 29.80 in 10.0 mi NW 18.4 mph 28.8 mph N/A   Overcast
8:01 PM 6.8 °F -13.4 °F 3.2 °F 85% 29.80 in 10.0 mi NW 20.7 mph 31.1 mph N/A   Overcast
8:21 PM 6.8 °F -11.8 °F 3.2 °F 85% 29.81 in 10.0 mi WNW 17.3 mph 27.6 mph N/A   Overcast
8:40 PM 6.8 °F -10.0 °F 3.2 °F 85% 29.81 in 10.0 mi WNW 13.8 mph 27.6 mph N/A   Overcast
9:00 PM 6.8 °F -12.9 °F 3.2 °F 85% 29.82 in 10.0 mi NW 19.6 mph 28.8 mph N/A   Overcast
9:21 PM 5.0 °F -14.7 °F 3.2 °F 92% 29.82 in 10.0 mi WNW 18.4 mph 31.1 mph N/A   Overcast
9:39 PM 5.0 °F -15.7 °F 3.2 °F 92% 29.82 in 7.0 mi WNW 20.7 mph 28.8 mph N/A   Overcast
9:59 PM 5.0 °F -15.2 °F 1.4 °F 85% 29.82 in 10.0 mi WNW 19.6 mph 26.5 mph N/A   Overcast
10:22 PM 5.0 °F -16.2 °F 3.2 °F 92% 29.83 in 10.0 mi WNW 21.9 mph 29.9 mph N/A   Overcast
10:40 PM 5.0 °F -15.7 °F 3.2 °F 92% 29.83 in 10.0 mi WNW 20.7 mph 28.8 mph N/A   Overcast
11:01 PM 3.2 °F -19.5 °F 3.2 °F 100% 29.83 in 10.0 mi NW 24.2 mph 31.1 mph N/A   Overcast
11:20 PM 3.2 °F -18.1 °F 1.4 °F 92% 29.82 in 10.0 mi WNW 20.7 mph 35.7 mph N/A   Overcast
11:39 PM 3.2 °F -17.6 °F 1.4 °F 92% 29.83 in 10.0 mi NW 19.6 mph 29.9 mph N/A   Overcast